Ana Sayfa
METAR-TAF:

METAR-TAF

Havaalanları :

Muş Havalimanı

Muş, Türkiye

Enlem: 38-45N, Boylam: 041-40E, yükseklik: 1266 m

Güncel hava durumu gözlemi

Rapor saat 19:50 UTC de 3 saat ve 28 dakika önce yapıldı.
Rüzgar değişken yönden 2 kt
Sıcaklık 0°C
Nem 59%
Basınç 1022 hPa
Görüş mesafesi 10 km veya daha fazla
1500 m altında bulut yok ve kümülonimbus yok

METAR: LTCK 191950Z VRB02KT CAVOK 00/M07 Q1022

Saat: 02:18 (23:18 UTC)

Tahmin

Rapor saat 13:40 UTC de 9 saat ve 38 dakika önce yapıldı.
Ayın 19'si saat 15 UTC'den ayın 19'si saat 24 UTC'ye kadar geçerli Tahmin
Rüzgar değişken yönden 2 kt
Görüş mesafesi 10 km veya daha fazla
1500 m altında bulut yok ve kümülonimbus yok

TAF: LTCK 191340Z 1915/1924 VRB02KT CAVOK

4.000'den fazla havaalanı için hava durumu gözlemleri ve tahminleri (METAR ve TAF raporları).

Kullanılabilir istasyonlar harita üzerinde sarı ve kırmızı noktalarla gösterilir.

İstasyonun adını görmek için fareyi noktanın üzerinde gezdirin.

Sonrasında hava gözlem ve tahminlerini görmek için tıklayın.

Haritayı değiştirmek için: yaklaştırmak için siyah artı işaretli yeşil düğmeye ve uzaklaştırmak için de eksi işaretli düğmeye hızla tıklayın; bitişik haritalar için yeşil okları kullanın.


METAR-TAF: